createdAt,value
2018-07-25T00:00:27.509Z,100120.54
2018-07-25T00:03:25.674Z,100119.80
2018-07-25T00:06:23.085Z,100118.87
2018-07-25T00:09:21.114Z,100121.47
2018-07-25T00:12:19.262Z,100118.46
2018-07-25T00:15:17.359Z,100121.55
2018-07-25T00:18:26.736Z,100117.78
2018-07-25T00:21:24.851Z,100114.22
2018-07-25T00:24:21.852Z,100119.56
2018-07-25T00:27:19.958Z,100122.92
2018-07-25T00:30:18.005Z,100113.06
2018-07-25T00:33:15.188Z,100105.15
2018-07-25T00:36:13.241Z,100109.29
2018-07-25T00:39:11.229Z,100111.25
2018-07-25T00:42:08.403Z,100109.62
2018-07-25T00:45:05.739Z,100109.04
2018-07-25T00:48:02.799Z,100106.89
2018-07-25T00:50:59.798Z,100114.27
2018-07-25T00:53:56.728Z,100116.48
2018-07-25T00:56:54.780Z,100117.31
2018-07-25T00:59:52.863Z,100116.34
2018-07-25T01:02:50.889Z,100113.64
2018-07-25T01:05:48.199Z,100107.48
2018-07-25T01:08:45.302Z,100118.83
2018-07-25T01:11:42.381Z,100119.77
2018-07-25T01:14:39.544Z,100118.26
2018-07-25T01:17:36.695Z,100115.19
2018-07-25T01:20:33.934Z,100121.96
2018-07-25T01:23:32.051Z,100122.16
2018-07-25T01:26:29.497Z,100129.50
2018-07-25T01:29:26.891Z,100133.93
2018-07-25T01:32:24.475Z,100125.02
2018-07-25T01:35:21.632Z,100129.21
2018-07-25T01:38:19.179Z,100131.52
2018-07-25T01:41:16.708Z,100129.28
2018-07-25T01:44:13.863Z,100134.52
2018-07-25T01:47:11.248Z,100134.46
2018-07-25T01:50:09.095Z,100137.52
2018-07-25T01:53:06.601Z,100139.03
2018-07-25T01:56:03.763Z,100143.42
2018-07-25T01:59:01.571Z,100143.91
2018-07-25T02:01:58.935Z,100142.83
2018-07-25T02:04:56.210Z,100158.14
2018-07-25T02:07:54.273Z,100150.31
2018-07-25T02:10:53.567Z,100148.81
2018-07-25T02:13:50.628Z,100147.09
2018-07-25T02:16:47.795Z,100145.54
2018-07-25T02:19:45.867Z,100148.31
2018-07-25T02:22:42.827Z,100150.79
2018-07-25T02:25:40.252Z,100147.98
2018-07-25T02:28:37.841Z,100152.08
2018-07-25T02:31:34.890Z,100152.70
2018-07-25T02:34:32.666Z,100144.41
2018-07-25T02:37:29.815Z,100145.30
2018-07-25T02:40:27.075Z,100154.42
2018-07-25T02:43:24.563Z,100152.30
2018-07-25T02:46:22.213Z,100146.96
2018-07-25T02:49:19.362Z,100151.14
2018-07-25T02:52:17.224Z,100144.75
2018-07-25T02:55:15.112Z,100153.02
2018-07-25T02:58:13.092Z,100151.07
2018-07-25T03:01:10.845Z,100141.98
2018-07-25T03:04:08.419Z,100159.09
2018-07-25T03:07:05.758Z,100153.85
2018-07-25T03:10:03.141Z,100155.84
2018-07-25T03:13:01.337Z,100160.04
2018-07-25T03:15:58.958Z,100163.09
2018-07-25T03:18:56.871Z,100161.30
2018-07-25T03:21:54.812Z,100165.93
2018-07-25T03:24:51.952Z,100167.09
2018-07-25T03:27:49.123Z,100167.22
2018-07-25T03:30:47.277Z,100172.47
2018-07-25T03:33:44.453Z,100172.25
2018-07-25T03:36:41.411Z,100172.90
2018-07-25T03:39:38.880Z,100174.78
2018-07-25T03:42:36.680Z,100168.77
2018-07-25T03:45:34.356Z,100177.09
2018-07-25T03:48:31.659Z,100171.91
2018-07-25T03:51:29.244Z,100170.63
2018-07-25T03:54:26.292Z,100166.20
2018-07-25T03:57:23.351Z,100165.85
2018-07-25T04:00:21.015Z,100174.91
2018-07-25T04:03:18.684Z,100171.88
2018-07-25T04:06:16.460Z,100173.50
2018-07-25T04:09:13.881Z,100178.00
2018-07-25T04:12:11.403Z,100180.10
2018-07-25T04:15:08.443Z,100191.16
2018-07-25T04:18:06.194Z,100192.23
2018-07-25T04:21:03.669Z,100194.55
2018-07-25T04:24:01.112Z,100200.47
2018-07-25T04:26:58.951Z,100205.17
2018-07-25T04:29:56.780Z,100209.58
2018-07-25T04:32:55.037Z,100204.36
2018-07-25T04:35:52.108Z,100209.13
2018-07-25T04:38:50.067Z,100205.22
2018-07-25T04:41:47.471Z,100212.79
2018-07-25T04:44:45.446Z,100211.09
2018-07-25T04:47:42.875Z,100207.78
2018-07-25T04:50:39.902Z,100202.39
2018-07-25T04:53:38.009Z,100199.78
2018-07-25T04:56:35.349Z,100194.88
2018-07-25T04:59:33.319Z,100208.70
2018-07-25T05:02:30.384Z,100205.45
2018-07-25T05:05:27.862Z,100206.95
2018-07-25T05:08:25.493Z,100204.84
2018-07-25T05:11:22.647Z,100206.38
2018-07-25T05:14:20.427Z,100221.83
2018-07-25T05:17:17.787Z,100228.50
2018-07-25T05:20:15.375Z,100234.52
2018-07-25T05:23:13.448Z,100242.05
2018-07-25T05:26:11.030Z,100238.95
2018-07-25T05:29:08.687Z,100237.59
2018-07-25T05:32:05.896Z,100244.14
2018-07-25T05:35:03.684Z,100251.41
2018-07-25T05:38:00.784Z,100248.44
2018-07-25T05:40:58.107Z,100246.27
2018-07-25T05:43:56.285Z,100241.27
2018-07-25T05:46:54.179Z,100245.07
2018-07-25T05:49:52.220Z,100235.78
2018-07-25T05:52:50.295Z,100232.84
2018-07-25T05:55:47.257Z,100234.94
2018-07-25T05:58:45.074Z,100221.86
2018-07-25T06:01:42.252Z,100227.16
2018-07-25T06:04:39.783Z,100235.95
2018-07-25T06:07:37.267Z,100236.24
2018-07-25T06:10:34.251Z,100239.23
2018-07-25T06:13:31.682Z,100235.75
2018-07-25T06:16:29.259Z,100232.99
2018-07-25T06:19:26.824Z,100234.98
2018-07-25T06:22:24.407Z,100239.79
2018-07-25T06:25:21.650Z,100236.29
2018-07-25T06:28:19.320Z,100238.91
2018-07-25T06:31:16.717Z,100240.52
2018-07-25T06:34:14.347Z,100247.13
2018-07-25T06:37:12.081Z,100247.95
2018-07-25T06:40:09.260Z,100248.66
2018-07-25T06:43:07.004Z,100246.16
2018-07-25T06:46:04.189Z,100257.03
2018-07-25T06:49:01.410Z,100258.31
2018-07-25T06:51:58.772Z,100261.42
2018-07-25T06:54:55.952Z,100253.51
2018-07-25T06:57:52.832Z,100262.83
2018-07-25T07:00:50.716Z,100259.09
2018-07-25T07:03:47.823Z,100256.98
2018-07-25T07:06:45.659Z,100264.44
2018-07-25T07:09:43.422Z,100258.48
2018-07-25T07:12:40.575Z,100262.30
2018-07-25T07:15:38.436Z,100267.46
2018-07-25T07:18:35.460Z,100268.89
2018-07-25T07:21:33.236Z,100266.40
2018-07-25T07:24:31.170Z,100259.35
2018-07-25T07:27:28.578Z,100267.70
2018-07-25T07:30:25.830Z,100270.72
2018-07-25T07:33:23.344Z,100271.48
2018-07-25T07:36:20.788Z,100270.44
2018-07-25T07:39:21.484Z,100272.95
2018-07-25T07:42:18.991Z,100270.42
2018-07-25T07:45:16.457Z,100265.58
2018-07-25T07:48:13.715Z,100270.13
2018-07-25T07:51:11.235Z,100274.70
2018-07-25T07:54:08.536Z,100272.42
2018-07-25T07:57:05.787Z,100272.77
2018-07-25T08:00:03.217Z,100271.17
2018-07-25T08:03:00.719Z,100274.95
2018-07-25T08:05:58.645Z,100273.16
2018-07-25T08:08:55.819Z,100269.26
2018-07-25T08:11:53.889Z,100272.20
2018-07-25T08:14:51.951Z,100270.36
2018-07-25T08:17:49.110Z,100276.44
2018-07-25T08:20:47.042Z,100275.32
2018-07-25T08:23:44.411Z,100276.45
2018-07-25T08:26:41.788Z,100277.91
2018-07-25T08:29:39.094Z,100270.13
2018-07-25T08:32:36.834Z,100269.78
2018-07-25T08:35:34.547Z,100266.09
2018-07-25T08:38:36.997Z,100267.25
2018-07-25T08:41:34.361Z,100266.42
2018-07-25T08:44:31.788Z,100265.35
2018-07-25T08:47:29.251Z,100270.86
2018-07-25T08:50:27.956Z,100267.22
2018-07-25T08:53:25.399Z,100270.77
2018-07-25T08:56:22.687Z,100268.92
2018-07-25T08:59:19.715Z,100275.17
2018-07-25T09:02:16.981Z,100270.55
2018-07-25T09:05:14.680Z,100276.69
2018-07-25T09:08:12.745Z,100267.94
2018-07-25T09:11:09.916Z,100280.38
2018-07-25T09:14:07.143Z,100269.05
2018-07-25T09:17:05.295Z,100272.72
2018-07-25T09:20:03.062Z,100279.65
2018-07-25T09:23:01.197Z,100273.77
2018-07-25T09:25:59.304Z,100274.70
2018-07-25T09:28:57.235Z,100273.56
2018-07-25T09:31:55.332Z,100272.81
2018-07-25T09:34:52.757Z,100277.65
2018-07-25T09:37:49.896Z,100266.16
2018-07-25T09:40:47.795Z,100275.06
2018-07-25T09:43:45.136Z,100275.28
2018-07-25T09:46:42.800Z,100271.70
2018-07-25T09:49:40.579Z,100265.70
2018-07-25T09:52:37.866Z,100262.72
2018-07-25T09:55:35.521Z,100262.18
2018-07-25T09:58:33.298Z,100271.10
2018-07-25T10:01:31.361Z,100264.20
2018-07-25T10:04:28.789Z,100265.14
2018-07-25T10:07:26.395Z,100264.06
2018-07-25T10:10:23.976Z,100253.13
2018-07-25T10:13:21.414Z,100245.32
2018-07-25T10:16:19.057Z,100254.34
2018-07-25T10:19:16.328Z,100244.30
2018-07-25T10:22:14.611Z,100240.94
2018-07-25T10:25:12.719Z,100237.14
2018-07-25T10:28:10.465Z,100249.61
2018-07-25T10:31:08.237Z,100250.56
2018-07-25T10:34:06.148Z,100248.09
2018-07-25T10:37:04.457Z,100247.00
2018-07-25T10:40:02.589Z,100242.89
2018-07-25T10:43:00.444Z,100235.08
2018-07-25T10:45:58.330Z,100222.91
2018-07-25T10:48:56.246Z,100220.95
2018-07-25T10:51:54.258Z,100221.58
2018-07-25T10:54:52.094Z,100232.91
2018-07-25T10:57:49.870Z,100242.55
2018-07-25T11:00:47.848Z,100230.06
2018-07-25T11:03:45.031Z,100226.09
2018-07-25T11:06:43.072Z,100223.73
2018-07-25T11:09:40.348Z,100215.62
2018-07-25T11:12:38.412Z,100220.81
2018-07-25T11:15:36.391Z,100225.03
2018-07-25T11:18:33.467Z,100221.84
2018-07-25T11:21:30.720Z,100223.41
2018-07-25T11:24:28.925Z,100219.09
2018-07-25T11:27:26.891Z,100221.24
2018-07-25T11:30:25.043Z,100217.61
2018-07-25T11:33:22.177Z,100214.53
2018-07-25T11:36:19.366Z,100208.19
2018-07-25T11:39:18.348Z,100206.13
2018-07-25T11:42:16.359Z,100209.44
2018-07-25T11:45:14.402Z,100205.98
2018-07-25T11:48:12.374Z,100204.39
2018-07-25T11:51:10.460Z,100211.32
2018-07-25T11:54:08.311Z,100209.84
2018-07-25T11:57:05.598Z,100207.86
2018-07-25T12:00:03.468Z,100211.97
2018-07-25T12:03:01.221Z,100210.69
2018-07-25T12:05:58.315Z,100207.96
2018-07-25T12:08:56.028Z,100204.27
2018-07-25T12:11:54.108Z,100208.38
2018-07-25T12:14:51.997Z,100200.67
2018-07-25T12:17:49.784Z,100206.85
2018-07-25T12:20:47.954Z,100208.89
2018-07-25T12:23:45.970Z,100214.30
2018-07-25T12:26:44.002Z,100213.03
2018-07-25T12:29:41.201Z,100210.31
2018-07-25T12:32:38.487Z,100210.21
2018-07-25T12:35:36.612Z,100205.34
2018-07-25T12:38:34.593Z,100204.66
2018-07-25T12:41:32.588Z,100202.38
2018-07-25T12:44:30.612Z,100202.25
2018-07-25T12:47:28.403Z,100203.28
2018-07-25T12:50:26.484Z,100201.20
2018-07-25T12:53:23.904Z,100201.97
2018-07-25T12:56:21.282Z,100199.31
2018-07-25T12:59:19.335Z,100186.75
2018-07-25T13:02:17.256Z,100189.30
2018-07-25T13:05:15.244Z,100190.67
2018-07-25T13:08:12.555Z,100183.58
2018-07-25T13:11:09.824Z,100185.59
2018-07-25T13:14:06.968Z,100184.48
2018-07-25T13:17:04.963Z,100173.41
2018-07-25T13:20:02.865Z,100176.17
2018-07-25T13:23:01.030Z,100179.86
2018-07-25T13:25:59.172Z,100174.09
2018-07-25T13:28:56.532Z,100175.23
2018-07-25T13:31:53.691Z,100178.86
2018-07-25T13:34:51.563Z,100169.92
2018-07-25T13:37:49.647Z,100173.05
2018-07-25T13:40:46.994Z,100169.22
2018-07-25T13:43:45.217Z,100169.95
2018-07-25T13:46:44.122Z,100173.30
2018-07-25T13:49:50.479Z,100171.11
2018-07-25T13:52:47.480Z,100172.37
2018-07-25T13:55:44.877Z,100182.39
2018-07-25T13:58:42.017Z,100182.03
2018-07-25T14:01:40.075Z,100178.94
2018-07-25T14:04:37.861Z,100167.64
2018-07-25T14:07:36.080Z,100178.70
2018-07-25T14:10:34.193Z,100166.20
2018-07-25T14:13:32.291Z,100165.89
2018-07-25T14:16:30.206Z,100170.62
2018-07-25T14:19:27.408Z,100162.38
2018-07-25T14:22:25.619Z,100166.73
2018-07-25T14:25:23.487Z,100169.99
2018-07-25T14:28:20.657Z,100170.80
2018-07-25T14:31:18.507Z,100167.64
2018-07-25T14:34:16.582Z,100163.25
2018-07-25T14:37:13.925Z,100161.47
2018-07-25T14:40:11.845Z,100165.59
2018-07-25T14:43:09.190Z,100164.48
2018-07-25T14:46:07.194Z,100169.66
2018-07-25T14:49:05.316Z,100167.08
2018-07-25T14:52:03.306Z,100160.91
2018-07-25T14:55:01.376Z,100157.58
2018-07-25T14:57:58.511Z,100158.55
2018-07-25T15:00:56.537Z,100156.23
2018-07-25T15:03:53.683Z,100149.41
2018-07-25T15:06:51.865Z,100153.66
2018-07-25T15:09:49.915Z,100155.55
2018-07-25T15:12:54.362Z,100141.41
2018-07-25T15:15:52.189Z,100141.28
2018-07-25T15:18:49.472Z,100142.22
2018-07-25T15:21:47.328Z,100137.01
2018-07-25T15:24:44.483Z,100140.34
2018-07-25T15:27:42.140Z,100142.22
2018-07-25T15:30:40.036Z,100141.95
2018-07-25T15:33:38.121Z,100141.87
2018-07-25T15:36:52.159Z,100137.13
2018-07-25T15:39:50.110Z,100138.61
2018-07-25T15:42:47.420Z,100138.19
2018-07-25T15:45:45.548Z,100128.72
2018-07-25T15:48:43.453Z,100129.03
2018-07-25T15:51:41.739Z,100132.84
2018-07-25T15:54:39.812Z,100121.64
2018-07-25T15:57:37.807Z,100130.12
2018-07-25T16:00:35.760Z,100133.09
2018-07-25T16:03:32.985Z,100124.60
2018-07-25T16:06:30.463Z,100122.13
2018-07-25T16:09:29.587Z,100130.04
2018-07-25T16:12:27.499Z,100121.60
2018-07-25T16:15:25.507Z,100125.52
2018-07-25T16:18:22.692Z,100116.64
2018-07-25T16:21:20.767Z,100121.23
2018-07-25T16:24:18.838Z,100121.81
2018-07-25T16:27:17.732Z,100122.69
2018-07-25T16:30:15.171Z,100119.19
2018-07-25T16:33:13.196Z,100118.14
2018-07-25T16:36:11.345Z,100117.02
2018-07-25T16:39:09.253Z,100120.05
2018-07-25T16:42:07.136Z,100124.09
2018-07-25T16:45:04.976Z,100121.64
2018-07-25T16:48:02.945Z,100126.31
2018-07-25T16:51:01.124Z,100126.88
2018-07-25T16:53:59.092Z,100137.29
2018-07-25T16:56:57.236Z,100138.23
2018-07-25T16:59:55.357Z,100135.00
2018-07-25T17:02:53.212Z,100156.33
2018-07-25T17:05:50.152Z,100139.67
2018-07-25T17:08:47.516Z,100156.90
2018-07-25T17:11:44.495Z,100148.20
2018-07-25T17:14:42.523Z,100137.31
2018-07-25T17:17:40.423Z,100147.69
2018-07-25T17:20:37.709Z,100146.08
2018-07-25T17:23:35.128Z,100141.20
2018-07-25T17:26:32.299Z,100145.86
2018-07-25T17:29:30.273Z,100146.98
2018-07-25T17:32:28.347Z,100146.13
2018-07-25T17:35:25.731Z,100153.20
2018-07-25T17:38:23.371Z,100170.62
2018-07-25T17:41:21.185Z,100175.87
2018-07-25T17:44:19.125Z,100181.59
2018-07-25T17:47:17.168Z,100178.86
2018-07-25T17:50:15.473Z,100182.64
2018-07-25T17:53:13.636Z,100186.61
2018-07-25T17:56:11.619Z,100190.92
2018-07-25T17:59:09.599Z,100197.66
2018-07-25T18:02:07.603Z,100193.49
2018-07-25T18:05:04.775Z,100199.53
2018-07-25T18:08:02.809Z,100205.25
2018-07-25T18:10:59.952Z,100202.17
2018-07-25T18:14:04.203Z,100205.73
2018-07-25T18:17:02.166Z,100224.66
2018-07-25T18:20:00.352Z,100233.59
2018-07-25T18:22:58.391Z,100239.63
2018-07-25T18:25:56.093Z,100249.54
2018-07-25T18:28:54.120Z,100244.63
2018-07-25T18:31:52.240Z,100251.86
2018-07-25T18:34:49.748Z,100262.85
2018-07-25T18:37:48.054Z,100278.06
2018-07-25T18:40:46.039Z,100285.10
2018-07-25T18:43:44.109Z,100293.34
2018-07-25T18:46:42.198Z,100299.55
2018-07-25T18:49:39.770Z,100304.64
2018-07-25T18:52:38.236Z,100312.59
2018-07-25T18:55:36.040Z,100311.65
2018-07-25T18:58:34.393Z,100317.47
2018-07-25T19:01:33.282Z,100320.48
2018-07-25T19:04:31.470Z,100317.55
2018-07-25T19:07:29.426Z,100311.77
2018-07-25T19:10:26.819Z,100307.01
2018-07-25T19:13:31.121Z,100321.03
2018-07-25T19:16:28.713Z,100320.60
2018-07-25T19:19:27.171Z,100340.42
2018-07-25T19:22:25.154Z,100338.00
2018-07-25T19:25:22.884Z,100325.77
2018-07-25T19:28:21.296Z,100323.20
2018-07-25T19:31:19.169Z,100329.95
2018-07-25T19:34:17.065Z,100323.95
2018-07-25T19:37:15.102Z,100330.02
2018-07-25T19:40:13.501Z,100333.41
2018-07-25T19:43:11.786Z,100341.09
2018-07-25T19:46:09.963Z,100333.19
2018-07-25T19:49:07.785Z,100337.70
2018-07-25T19:52:05.950Z,100333.53
2018-07-25T19:55:03.733Z,100319.36
2018-07-25T19:58:02.064Z,100323.31
2018-07-25T20:01:00.073Z,100314.45
2018-07-25T20:03:57.844Z,100318.80
2018-07-25T20:06:56.048Z,100335.11
2018-07-25T20:09:53.985Z,100339.82
2018-07-25T20:12:51.180Z,100337.03
2018-07-25T20:15:55.439Z,100331.09
2018-07-25T20:18:53.516Z,100328.94
2018-07-25T20:21:51.797Z,100325.94
2018-07-25T20:24:49.157Z,100322.34
2018-07-25T20:27:46.676Z,100319.70
2018-07-25T20:30:45.210Z,100324.19
2018-07-25T20:33:42.832Z,100319.92
2018-07-25T20:36:40.685Z,100327.74
2018-07-25T20:39:38.560Z,100318.22
2018-07-25T20:42:36.393Z,100318.36
2018-07-25T20:45:34.569Z,100326.55
2018-07-25T20:48:32.091Z,100322.36
2018-07-25T20:51:30.139Z,100323.16
2018-07-25T20:54:28.496Z,100320.39
2018-07-25T20:57:26.670Z,100322.06
2018-07-25T21:00:29.003Z,100328.56
2018-07-25T21:03:26.839Z,100328.56
2018-07-25T21:06:24.778Z,100326.25
2018-07-25T21:09:22.409Z,100330.69
2018-07-25T21:12:19.571Z,100334.60
2018-07-25T21:15:17.570Z,100337.50
2018-07-25T21:18:15.175Z,100335.52
2018-07-25T21:21:12.376Z,100331.94
2018-07-25T21:24:09.861Z,100328.11
2018-07-25T21:27:06.999Z,100332.10
2018-07-25T21:30:04.259Z,100337.03
2018-07-25T21:33:01.459Z,100340.42
2018-07-25T21:35:59.391Z,100341.08
2018-07-25T21:38:57.471Z,100340.41
2018-07-25T21:41:55.359Z,100344.44
2018-07-25T21:44:52.551Z,100347.22
2018-07-25T21:47:50.040Z,100344.84
2018-07-25T21:50:47.368Z,100344.23
2018-07-25T21:53:44.849Z,100348.80
2018-07-25T21:56:42.894Z,100345.42
2018-07-25T21:59:40.830Z,100344.17
2018-07-25T22:02:38.156Z,100333.45
2018-07-25T22:05:36.032Z,100336.02
2018-07-25T22:08:33.029Z,100332.50
2018-07-25T22:11:30.946Z,100331.29
2018-07-25T22:14:28.308Z,100322.67
2018-07-25T22:17:25.536Z,100323.28
2018-07-25T22:20:23.108Z,100328.83
2018-07-25T22:23:20.152Z,100329.28
2018-07-25T22:26:17.423Z,100331.45
2018-07-25T22:29:15.227Z,100330.31
2018-07-25T22:32:12.474Z,100334.20
2018-07-25T22:35:10.300Z,100331.38
2018-07-25T22:38:07.870Z,100328.52
2018-07-25T22:41:06.036Z,100330.32
2018-07-25T22:44:04.025Z,100331.89
2018-07-25T22:47:01.114Z,100330.45
2018-07-25T22:49:59.190Z,100332.86
2018-07-25T22:52:57.058Z,100334.57
2018-07-25T22:55:54.031Z,100337.37
2018-07-25T22:58:51.293Z,100334.98
2018-07-25T23:01:49.220Z,100346.83
2018-07-25T23:04:46.224Z,100343.32
2018-07-25T23:07:44.184Z,100346.16
2018-07-25T23:10:41.353Z,100342.30
2018-07-25T23:13:39.491Z,100345.02
2018-07-25T23:16:37.525Z,100344.92
2018-07-25T23:19:35.075Z,100339.67
2018-07-25T23:22:32.403Z,100340.12
2018-07-25T23:25:29.842Z,100343.48
2018-07-25T23:28:26.898Z,100345.95
2018-07-25T23:31:24.568Z,100344.16
2018-07-25T23:34:21.700Z,100347.59
2018-07-25T23:37:19.537Z,100341.67
2018-07-25T23:40:16.336Z,100349.83
2018-07-25T23:43:14.303Z,100341.13
2018-07-25T23:46:12.099Z,100338.92
2018-07-25T23:49:10.191Z,100339.73
2018-07-25T23:52:07.618Z,100338.35
2018-07-25T23:55:04.983Z,100338.59
2018-07-25T23:58:02.552Z,100333.75
